Time;durP1;ratioP1;P1;durP2;ratioP2;P2;SDS_P1;SDS_P2;PMS_P1;PMS_P2;Temp;Humidity;BMP_temperature;BMP_pressure;BME280_temperature;BME280_humidity;BME280_pressure;Samples;Min_cycle;Max_cycle;Signal;HPM_P1;HPM_P2
2023/03/23 00:02:28;;;;;;;3.50;3.03;;;;;;;13.65;61.08;98946.47;6146947;23;20156;-81
2023/03/23 00:04:54;;;;;;;4.05;3.40;;;;;;;13.62;61.24;98945.91;6149315;23;20230;-81
2023/03/23 00:07:27;;;;;;;2.58;2.38;;;;;;;13.63;60.94;98942.28;6147193;23;20183;-81
2023/03/23 00:09:53;;;;;;;4.80;2.75;;;;;;;13.68;60.94;98940.94;6142810;23;20247;-81
2023/03/23 00:12:33;;;;;;;4.25;3.50;;;;;;;13.73;60.74;98938.72;6146511;23;20171;-81
2023/03/23 00:15:04;;;;;;;4.45;2.90;;;;;;;13.78;60.70;98938.31;6147621;23;20186;-81
2023/03/23 00:17:32;;;;;;;2.33;2.13;;;;;;;13.81;60.56;98943.34;6147505;23;20179;-81
2023/03/23 00:20:00;;;;;;;3.10;2.30;;;;;;;13.84;60.36;98935.16;6147490;23;20167;-81
2023/03/23 00:22:27;;;;;;;3.08;2.88;;;;;;;13.80;60.30;98935.53;6151072;23;20159;-81
2023/03/23 00:24:53;;;;;;;4.95;3.03;;;;;;;13.75;60.23;98927.22;6150284;23;20152;-81
2023/03/23 00:27:21;;;;;;;3.47;2.70;;;;;;;13.68;60.31;98919.81;6149201;23;20186;-80
2023/03/23 00:29:47;;;;;;;5.10;3.40;;;;;;;13.64;60.52;98922.88;6150147;23;20410;-81
2023/03/23 00:32:14;;;;;;;4.43;3.17;;;;;;;13.62;60.65;98922.16;6150314;23;20204;-81
2023/03/23 00:34:41;;;;;;;4.43;2.97;;;;;;;13.62;60.74;98928.28;6149554;23;20527;-81
2023/03/23 00:37:07;;;;;;;6.47;3.55;;;;;;;13.66;60.78;98923.56;6121457;23;20179;-81
2023/03/23 00:39:33;;;;;;;3.63;3.33;;;;;;;13.68;60.76;98913.69;6120208;23;20163;-80
2023/03/23 00:42:00;;;;;;;5.47;3.00;;;;;;;13.69;60.85;98916.22;6144925;23;20151;-80
2023/03/23 00:44:30;;;;;;;4.65;2.78;;;;;;;13.68;60.99;98911.06;6145366;23;20774;-80
2023/03/23 00:46:56;;;;;;;4.10;3.28;;;;;;;13.66;61.09;98919.13;6145888;23;20195;-80
2023/03/23 00:49:26;;;;;;;3.90;2.63;;;;;;;13.65;61.11;98916.63;6121367;23;20163;-80
2023/03/23 00:51:54;;;;;;;3.10;2.80;;;;;;;13.65;61.36;98920.09;6122839;23;20158;-79
2023/03/23 00:54:20;;;;;;;3.88;3.55;;;;;;;13.67;61.25;98917.31;6148952;23;20152;-80
2023/03/23 00:56:48;;;;;;;3.90;3.60;;;;;;;13.70;61.40;98906.50;6122788;23;20191;-80
2023/03/23 00:59:14;;;;;;;2.83;2.60;;;;;;;13.69;61.66;98904.81;6123560;23;20498;-80
2023/03/23 01:01:39;;;;;;;2.87;2.67;;;;;;;13.68;61.76;98897.88;6149674;23;20152;-80
2023/03/23 01:04:05;;;;;;;5.90;3.53;;;;;;;13.68;61.75;98898.69;6148178;23;20156;-80
2023/03/23 01:06:38;;;;;;;3.73;3.40;;;;;;;13.67;61.90;98904.13;6144499;23;20614;-80
2023/03/23 01:09:05;;;;;;;3.80;2.55;;;;;;;13.67;61.98;98906.78;6121786;23;20481;-80
2023/03/23 01:11:31;;;;;;;2.75;2.50;;;;;;;13.68;62.19;98905.78;6149119;23;20163;-80
2023/03/23 01:13:57;;;;;;;3.70;2.50;;;;;;;13.67;62.31;98901.50;6148512;23;20212;-80
2023/03/23 01:16:23;;;;;;;4.63;3.43;;;;;;;13.63;62.70;98882.44;6123127;23;20187;-80
2023/03/23 01:18:49;;;;;;;3.10;2.80;;;;;;;13.59;63.01;98878.41;6149305;23;20155;-80
2023/03/23 01:21:17;;;;;;;5.67;3.50;;;;;;;13.58;63.26;98875.91;6149681;23;20446;-80
2023/03/23 01:23:43;;;;;;;3.58;3.13;;;;;;;13.57;63.64;98882.16;6123245;23;20286;-80
2023/03/23 01:26:11;;;;;;;4.87;3.03;;;;;;;13.57;63.89;98871.59;6149616;23;20195;-81
2023/03/23 01:28:40;;;;;;;3.10;2.88;;;;;;;13.57;64.15;98875.06;6123911;23;20197;-81
2023/03/23 01:31:09;;;;;;;4.53;2.65;;;;;;;13.57;64.36;98866.31;6125735;23;20472;-81
2023/03/23 01:33:35;;;;;;;3.25;2.50;;;;;;;13.58;64.34;98866.16;6150384;23;20172;-81
2023/03/23 01:36:13;;;;;;;3.43;2.47;;;;;;;13.62;64.56;98869.38;6126046;23;20567;-81
2023/03/23 01:38:41;;;;;;;2.80;2.40;;;;;;;13.62;64.56;98862.31;6124104;23;20872;-81
2023/03/23 01:41:06;;;;;;;2.75;2.10;;;;;;;13.65;64.50;98851.47;6124487;23;20214;-81
2023/03/23 01:43:32;;;;;;;6.00;2.50;;;;;;;13.68;64.28;98845.91;6124702;23;20195;-81
2023/03/23 01:45:57;;;;;;;4.03;1.87;;;;;;;13.75;63.99;98848.88;6150953;23;20206;-81
2023/03/23 01:48:27;;;;;;;3.13;2.60;;;;;;;13.83;63.51;98843.75;6124003;23;20233;-81
2023/03/23 01:50:58;;;;;;;2.22;2.03;;;;;;;13.90;63.15;98849.28;6133644;23;20501;-81
2023/03/23 01:53:29;;;;;;;1.25;1.15;;;;;;;13.97;62.78;98847.78;6099714;23;20227;-80
2023/03/23 01:55:57;;;;;;;1.90;1.63;;;;;;;14.07;62.00;98832.78;6104566;23;20187;-81
2023/03/23 01:58:27;;;;;;;1.60;1.50;;;;;;;14.18;60.64;98834.44;6126021;23;20182;-81
2023/03/23 02:00:58;;;;;;;4.28;2.85;;;;;;;14.32;60.11;98835.81;6092731;23;20534;-79
2023/03/23 02:07:13;;;;;;;4.10;3.10;;;;;;;14.35;60.05;98841.66;6118924;23;20235;-80
2023/03/23 02:09:39;;;;;;;3.13;2.65;;;;;;;14.28;60.40;98834.41;6120593;23;20155;-80
2023/03/23 02:12:05;;;;;;;6.03;2.70;;;;;;;14.17;60.89;98828.31;6123618;23;20219;-80
2023/03/23 02:14:32;;;;;;;2.72;2.22;;;;;;;14.09;61.32;98812.31;6104162;23;20631;-81
2023/03/23 02:17:28;;;;;;;2.77;2.40;;;;;;;14.03;61.61;98801.50;6104996;23;21030;-80
2023/03/23 02:20:13;;;;;;;3.90;3.20;;;;;;;13.97;61.91;98804.69;6103087;23;20400;-81
2023/03/23 02:22:58;;;;;;;3.63;2.42;;;;;;;13.93;61.94;98818.19;6099429;23;20290;-80
2023/03/23 02:25:37;;;;;;;2.20;1.90;;;;;;;13.94;62.09;98809.28;6093253;23;20168;-79
2023/03/23 02:28:12;;;;;;;3.38;3.08;;;;;;;13.97;61.93;98799.41;6114753;23;20171;-81
2023/03/23 02:30:53;;;;;;;4.57;2.75;;;;;;;14.03;61.58;98798.84;6118888;23;20151;-80
2023/03/23 02:33:40;;;;;;;3.15;1.65;;;;;;;14.10;60.93;98802.63;6090056;23;20486;-80
2023/03/23 02:36:20;;;;;;;8.43;1.88;;;;;;;14.17;60.25;98787.84;6117614;23;20246;-80
2023/03/23 02:38:58;;;;;;;4.80;1.50;;;;;;;14.26;59.73;98779.09;6089800;23;20156;-80
2023/03/23 02:41:28;;;;;;;1.48;1.20;;;;;;;14.39;58.33;98769.06;6091050;23;20807;-79
2023/03/23 02:43:56;;;;;;;2.55;1.40;;;;;;;14.57;57.16;98769.19;6090526;23;21094;-80
2023/03/23 02:46:22;;;;;;;1.60;1.47;;;;;;;14.71;56.51;98767.88;6068437;23;1057417;-80
2023/03/23 02:48:51;;;;;;;1.85;1.30;;;;;;;14.83;55.42;98774.66;6090705;23;20168;-81
2023/03/23 02:51:19;;;;;;;1.80;1.20;;;;;;;14.96;54.48;98782.28;6091918;23;20164;-80
2023/03/23 02:53:50;;;;;;;1.40;1.30;;;;;;;15.09;53.73;98781.94;6092303;23;20248;-80
2023/03/23 02:56:17;;;;;;;1.67;1.40;;;;;;;15.21;52.70;98787.88;6092140;23;20294;-80
2023/03/23 02:58:43;;;;;;;1.65;1.40;;;;;;;15.32;52.35;98786.84;6117505;23;20162;-81
2023/03/23 03:01:33;;;;;;;2.43;1.60;;;;;;;15.44;51.73;98785.63;6092285;23;20168;-80
2023/03/23 03:04:03;;;;;;;2.20;1.40;;;;;;;15.49;51.18;98786.84;6114857;23;20443;-80
2023/03/23 03:06:48;;;;;;;3.08;1.75;;;;;;;15.60;50.33;98783.16;6107120;23;20293;-80
2023/03/23 03:09:26;;;;;;;1.30;1.20;;;;;;;15.69;49.96;98786.78;6119557;23;20159;-80
2023/03/23 03:11:58;;;;;;;1.60;1.40;;;;;;;15.75;49.48;98772.94;6121969;23;20159;-80
2023/03/23 03:14:31;;;;;;;1.55;1.40;;;;;;;15.84;49.22;98763.25;6121469;23;20162;-80
2023/03/23 03:17:06;;;;;;;1.35;1.20;;;;;;;15.92;48.92;98758.00;6121727;23;20637;-80
2023/03/23 03:19:38;;;;;;;1.60;1.50;;;;;;;15.96;48.79;98758.53;6146833;23;20567;-80
2023/03/23 03:22:04;;;;;;;1.30;1.20;;;;;;;15.97;48.64;98758.38;6145892;23;20210;-80
2023/03/23 03:24:38;;;;;;;1.30;1.17;;;;;;;15.98;48.16;98753.91;6145827;23;20195;-80
2023/03/23 03:27:11;;;;;;;1.30;1.20;;;;;;;16.00;47.91;98746.66;6120824;23;20186;-80
2023/03/23 03:29:47;;;;;;;1.90;1.60;;;;;;;16.05;47.66;98750.50;6120487;23;20198;-80
2023/03/23 03:32:18;;;;;;;1.42;1.30;;;;;;;16.09;46.92;98748.38;6120832;23;20169;-80
2023/03/23 03:34:44;;;;;;;1.30;1.20;;;;;;;16.14;46.86;98744.28;6121417;23;20491;-80
2023/03/23 03:37:11;;;;;;;2.50;1.43;;;;;;;16.17;46.69;98745.78;6122354;23;20738;-80
2023/03/23 03:39:38;;;;;;;1.40;1.27;;;;;;;16.18;46.48;98734.22;6121234;23;20416;-80
2023/03/23 03:42:05;;;;;;;1.92;1.55;;;;;;;16.22;46.31;98726.78;6123129;23;20159;-81
2023/03/23 03:44:31;;;;;;;1.42;1.30;;;;;;;16.27;45.71;98733.28;6124946;23;20198;-81
2023/03/23 03:46:57;;;;;;;2.42;1.70;;;;;;;16.34;45.63;98746.75;6123745;23;21236;-81
2023/03/23 03:49:22;;;;;;;1.40;1.30;;;;;;;16.41;45.47;98744.31;6123324;23;20630;-80
2023/03/23 03:51:48;;;;;;;1.17;1.07;;;;;;;16.44;45.18;98744.00;6123942;23;20189;-80
2023/03/23 03:54:21;;;;;;;2.40;1.33;;;;;;;16.46;44.96;98740.19;6123968;23;20155;-80
2023/03/23 03:56:47;;;;;;;2.03;1.17;;;;;;;16.48;44.99;98743.53;6124199;23;20263;-80
2023/03/23 03:59:35;;;;;;;3.15;2.17;;;;;;;16.49;44.87;98747.81;6147440;23;20268;-82
2023/03/23 04:02:22;;;;;;;1.55;1.10;;;;;;;16.50;44.67;98744.22;6123152;23;20156;-82
2023/03/23 04:04:52;;;;;;;1.98;1.10;;;;;;;16.54;44.47;98745.53;6120425;23;20186;-81
2023/03/23 04:07:18;;;;;;;2.80;1.83;;;;;;;16.58;44.29;98754.84;6123136;23;20189;-82
2023/03/23 04:09:46;;;;;;;2.20;1.10;;;;;;;16.61;44.04;98764.31;6123588;23;20204;-83
2023/03/23 04:12:13;;;;;;;2.45;1.33;;;;;;;16.64;44.18;98763.19;6123778;23;20158;-80
2023/03/23 04:14:58;;;;;;;1.75;1.10;;;;;;;16.66;43.93;98764.69;6150591;23;20179;-80
2023/03/23 04:17:31;;;;;;;1.75;1.65;;;;;;;16.67;43.90;98761.03;6124228;23;20268;-82
2023/03/23 04:19:57;;;;;;;1.80;1.53;;;;;;;16.69;43.81;98748.47;6126534;23;20186;-81
2023/03/23 04:22:29;;;;;;;2.33;1.65;;;;;;;16.70;43.71;98744.81;6122622;23;20189;-80
2023/03/23 04:24:58;;;;;;;1.52;1.30;;;;;;;16.73;43.67;98744.50;6148884;23;20168;-79
2023/03/23 04:27:25;;;;;;;1.70;1.10;;;;;;;16.78;43.30;98752.00;6124117;23;20188;-81
2023/03/23 04:29:50;;;;;;;1.67;1.58;;;;;;;16.82;43.36;98753.34;6123744;23;20226;-80
2023/03/23 04:32:31;;;;;;;1.50;1.20;;;;;;;16.87;43.09;98764.31;6122607;23;20177;-80
2023/03/23 04:34:59;;;;;;;1.93;1.40;;;;;;;16.90;43.08;98771.94;6139992;23;20210;-81
2023/03/23 04:37:33;;;;;;;2.22;1.60;;;;;;;16.93;43.02;98765.50;6115105;23;20184;-80
2023/03/23 04:40:00;;;;;;;1.95;1.77;;;;;;;16.94;43.11;98767.19;6115548;23;20162;-81
2023/03/23 04:42:28;;;;;;;1.77;1.40;;;;;;;16.94;43.08;98769.81;6140229;23;20166;-83
2023/03/23 04:45:21;;;;;;;1.88;1.75;;;;;;;16.92;43.21;98777.94;6142285;23;20893;-80
2023/03/23 04:47:57;;;;;;;1.67;1.58;;;;;;;16.93;43.07;98787.56;6118159;23;20271;-81
2023/03/23 04:50:30;;;;;;;2.17;1.60;;;;;;;16.95;42.97;98782.09;6121395;23;20165;-79
2023/03/23 04:53:04;;;;;;;1.50;1.35;;;;;;;16.94;43.12;98783.09;6123519;23;20246;-79
2023/03/23 04:55:35;;;;;;;2.00;1.50;;;;;;;16.95;43.09;98790.88;6121542;23;20188;-79
2023/03/23 04:58:05;;;;;;;1.55;1.30;;;;;;;16.97;42.93;98788.91;6125729;23;20465;-79
2023/03/23 05:00:40;;;;;;;2.40;1.85;;;;;;;16.99;42.84;98794.88;6123970;23;20498;-79
2023/03/23 05:03:07;;;;;;;2.00;1.45;;;;;;;17.01;42.82;98792.91;6124076;23;20269;-79
2023/03/23 05:05:34;;;;;;;3.55;1.80;;;;;;;17.03;42.66;98798.88;6151522;23;20161;-78
2023/03/23 05:08:05;;;;;;;2.10;1.90;;;;;;;17.05;42.58;98793.41;6126199;23;20151;-79
2023/03/23 05:10:33;;;;;;;1.85;1.75;;;;;;;17.06;42.69;98796.91;6128038;23;20162;-79
2023/03/23 05:13:05;;;;;;;2.45;1.63;;;;;;;17.05;42.91;98792.59;6129803;23;20236;-79
2023/03/23 05:15:30;;;;;;;2.20;1.50;;;;;;;17.03;42.82;98788.25;6126340;23;20196;-79
2023/03/23 05:17:57;;;;;;;2.38;1.67;;;;;;;17.01;42.98;98782.31;6125558;23;20250;-79
2023/03/23 05:20:24;;;;;;;2.35;1.45;;;;;;;17.00;43.07;98783.28;6125207;23;20726;-79
2023/03/23 05:22:53;;;;;;;4.32;2.50;;;;;;;16.99;42.98;98786.09;6152711;23;20186;-79
2023/03/23 05:25:24;;;;;;;2.00;1.40;;;;;;;16.98;43.02;98789.72;6125537;23;20172;-79
2023/03/23 05:27:58;;;;;;;1.90;1.60;;;;;;;16.98;43.18;98793.19;6125347;23;20174;-79
2023/03/23 05:30:44;;;;;;;2.05;1.70;;;;;;;16.97;43.27;98796.84;6150980;23;20283;-79
2023/03/23 05:33:11;;;;;;;2.37;2.10;;;;;;;16.99;43.25;98802.03;6125965;23;20160;-79
2023/03/23 05:36:13;;;;;;;2.00;1.90;;;;;;;16.97;43.37;98809.31;6070357;23;20867;-79
2023/03/23 05:38:59;;;;;;;2.53;2.30;;;;;;;16.95;43.44;98817.41;6149852;23;20232;-79
2023/03/23 05:41:26;;;;;;;1.90;1.65;;;;;;;16.96;43.63;98807.66;6123970;23;20161;-79
2023/03/23 05:43:51;;;;;;;2.37;1.73;;;;;;;16.96;43.67;98810.28;6125115;23;20280;-79
2023/03/23 05:46:30;;;;;;;2.05;1.60;;;;;;;16.94;43.56;98813.09;6125346;23;20219;-79
2023/03/23 05:48:59;;;;;;;1.95;1.75;;;;;;;16.94;43.60;98813.09;6126215;23;20533;-79
2023/03/23 05:51:31;;;;;;;3.17;2.85;;;;;;;16.92;43.80;98822.19;6127151;23;20161;-78
2023/03/23 05:53:56;;;;;;;2.33;1.58;;;;;;;16.95;43.65;98825.34;6125117;23;20161;-79
2023/03/23 05:56:22;;;;;;;2.20;2.00;;;;;;;16.95;43.92;98838.63;6126103;23;20200;-79
2023/03/23 05:59:23;;;;;;;2.35;1.63;;;;;;;16.93;44.06;98850.38;6005353;23;20521;-79
2023/03/23 06:01:55;;;;;;;2.70;2.20;;;;;;;16.93;44.15;98842.41;6103845;23;20155;-79
2023/03/23 06:04:24;;;;;;;1.50;1.40;;;;;;;16.90;44.38;98856.81;6124777;23;20616;-78
2023/03/23 06:07:02;;;;;;;2.13;1.92;;;;;;;16.85;44.57;98856.50;6125693;23;20235;-78
2023/03/23 06:09:28;;;;;;;2.13;1.80;;;;;;;16.83;44.69;98865.59;6125569;23;20180;-78
2023/03/23 06:12:14;;;;;;;2.65;2.00;;;;;;;16.80;45.09;98869.38;6130902;23;20259;-80
2023/03/23 06:14:48;;;;;;;3.53;1.95;;;;;;;16.75;45.18;98871.63;6125284;23;20153;-78
2023/03/23 06:17:17;;;;;;;2.38;2.03;;;;;;;16.72;45.36;98864.00;6125783;23;20190;-79
2023/03/23 06:19:45;;;;;;;2.63;2.00;;;;;;;16.69;45.53;98873.09;6123779;23;20168;-77
2023/03/23 06:22:14;;;;;;;2.25;2.05;;;;;;;16.67;45.63;98871.56;6150677;23;20530;-78
2023/03/23 06:24:43;;;;;;;2.00;1.80;;;;;;;16.64;45.74;98874.53;6150261;23;20659;-79
2023/03/23 06:27:10;;;;;;;2.30;1.92;;;;;;;16.62;45.87;98873.84;6124741;23;20191;-78
2023/03/23 06:29:37;;;;;;;5.07;3.58;;;;;;;16.59;45.92;98875.81;6125743;23;20247;-79
2023/03/23 06:32:04;;;;;;;2.58;2.38;;;;;;;16.57;45.96;98869.00;6125650;23;20159;-79
2023/03/23 06:34:32;;;;;;;3.17;2.28;;;;;;;16.54;46.05;98864.84;6124872;23;20214;-79
2023/03/23 06:37:17;;;;;;;3.13;2.00;;;;;;;16.50;46.17;98860.84;6156184;23;20455;-79
2023/03/23 06:39:51;;;;;;;3.05;1.73;;;;;;;16.50;46.22;98854.69;6133221;23;20162;-79
2023/03/23 06:42:24;;;;;;;1.98;1.80;;;;;;;16.49;46.23;98861.81;6133053;23;20171;-78
2023/03/23 06:45:00;;;;;;;2.05;1.85;;;;;;;16.47;46.40;98855.84;6132739;23;20168;-79
2023/03/23 06:47:27;;;;;;;2.42;1.95;;;;;;;16.46;46.37;98858.66;6157068;23;20188;-79
2023/03/23 06:49:52;;;;;;;3.88;2.75;;;;;;;16.45;46.46;98872.91;6131059;23;20177;-80
2023/03/23 06:52:24;;;;;;;2.88;2.42;;;;;;;16.45;46.53;98878.19;6156484;23;20181;-79
2023/03/23 06:54:51;;;;;;;3.10;2.20;;;;;;;16.44;46.67;98877.34;6132982;23;20208;-79
2023/03/23 06:57:18;;;;;;;3.03;2.15;;;;;;;16.40;46.58;98891.91;6133576;23;20191;-79
2023/03/23 06:59:45;;;;;;;2.97;2.08;;;;;;;16.39;46.72;98903.50;6128351;23;20160;-80
2023/03/23 07:02:13;;;;;;;4.17;1.83;;;;;;;16.36;46.97;98907.28;6125549;23;20161;-79
2023/03/23 07:04:40;;;;;;;3.35;2.20;;;;;;;16.34;46.87;98914.56;6123725;23;20436;-79
2023/03/23 07:07:14;;;;;;;3.38;2.40;;;;;;;16.33;47.17;98920.81;6124602;23;20188;-79
2023/03/23 07:09:47;;;;;;;4.65;2.05;;;;;;;16.33;47.24;98920.00;6124487;23;20483;-80
2023/03/23 07:12:15;;;;;;;3.85;1.90;;;;;;;16.31;47.12;98919.31;6124368;23;20173;-80
2023/03/23 07:14:45;;;;;;;3.03;2.08;;;;;;;16.32;46.96;98916.50;6124063;23;20319;-79
2023/03/23 07:17:11;;;;;;;3.97;2.50;;;;;;;16.35;47.03;98913.56;6124589;23;20188;-79
2023/03/23 07:19:41;;;;;;;2.03;1.70;;;;;;;16.36;46.90;98917.88;6124992;23;21010;-79
2023/03/23 07:22:10;;;;;;;3.05;2.03;;;;;;;16.39;47.13;98916.75;6125542;23;20240;-79
2023/03/23 07:24:36;;;;;;;2.60;1.70;;;;;;;16.43;47.70;98927.88;6125036;23;20211;-79
2023/03/23 07:27:23;;;;;;;2.72;1.70;;;;;;;16.42;48.32;98935.00;6125670;23;20179;-79
2023/03/23 07:29:51;;;;;;;2.30;2.00;;;;;;;16.37;48.92;98938.09;6126943;23;20243;-79
2023/03/23 07:32:22;;;;;;;2.67;2.13;;;;;;;16.32;49.67;98943.00;6125382;23;20217;-79
2023/03/23 07:34:47;;;;;;;2.73;2.27;;;;;;;16.27;50.09;98944.44;6124964;23;20154;-79
2023/03/23 07:37:22;;;;;;;4.90;2.92;;;;;;;16.23;50.39;98946.56;6125497;23;20907;-80
2023/03/23 07:39:49;;;;;;;6.43;2.65;;;;;;;16.18;50.55;98945.38;6125611;23;20159;-80
2023/03/23 07:42:15;;;;;;;4.00;2.25;;;;;;;16.15;50.71;98949.16;6125866;23;20183;-80
2023/03/23 07:44:46;;;;;;;4.07;2.30;;;;;;;16.09;50.94;98945.28;6125657;23;20192;-80
2023/03/23 07:47:13;;;;;;;2.97;2.08;;;;;;;16.08;51.08;98942.75;6124077;23;20200;-80
2023/03/23 07:49:38;;;;;;;3.50;2.17;;;;;;;16.05;51.29;98956.31;6124656;23;20558;-79
2023/03/23 07:52:14;;;;;;;2.53;2.05;;;;;;;16.02;51.60;98953.97;6124428;23;20170;-79
2023/03/23 07:54:40;;;;;;;2.63;2.43;;;;;;;16.01;51.78;98957.56;6124512;23;20155;-79
2023/03/23 07:57:21;;;;;;;4.35;2.40;;;;;;;15.99;51.89;98965.69;6123402;23;20183;-79
2023/03/23 07:59:51;;;;;;;2.95;2.30;;;;;;;15.97;52.25;98962.34;6123385;23;20543;-79
2023/03/23 08:02:16;;;;;;;2.10;1.90;;;;;;;15.93;52.68;98964.47;6120519;23;20147;-79
2023/03/23 08:05:00;;;;;;;3.28;2.13;;;;;;;15.90;52.86;98966.56;6145757;23;20448;-80
2023/03/23 08:07:54;;;;;;;3.05;2.65;;;;;;;15.88;53.31;98976.47;6149125;23;20213;-79
2023/03/23 08:10:40;;;;;;;2.78;2.22;;;;;;;15.84;53.57;98980.38;6125914;23;20544;-80
2023/03/23 08:13:18;;;;;;;2.53;2.33;;;;;;;15.82;53.97;98977.88;6125558;23;20152;-79
2023/03/23 08:16:03;;;;;;;2.88;1.92;;;;;;;15.79;54.59;98978.16;6150910;23;20237;-80
2023/03/23 08:18:47;;;;;;;2.10;1.90;;;;;;;15.78;54.91;98986.28;6148446;23;20175;-79
2023/03/23 08:21:26;;;;;;;3.75;2.40;;;;;;;15.78;55.07;98978.34;6123443;23;20163;-79
2023/03/23 08:24:18;;;;;;;3.15;2.10;;;;;;;15.78;55.24;98973.03;6145631;23;20262;-79
2023/03/23 08:27:04;;;;;;;2.75;2.00;;;;;;;15.78;55.59;98986.28;6075965;23;20183;-80
2023/03/23 08:29:48;;;;;;;2.40;1.70;;;;;;;15.77;55.71;98993.41;6124235;23;20159;-79
2023/03/23 08:32:36;;;;;;;5.00;2.40;;;;;;;15.79;55.87;98987.94;6147494;23;20164;-79
2023/03/23 08:35:23;;;;;;;3.57;2.60;;;;;;;15.79;56.12;98980.00;6149268;23;20389;-79
2023/03/23 08:37:54;;;;;;;2.25;2.03;;;;;;;15.81;56.34;98985.97;6149886;23;20414;-78
2023/03/23 08:40:39;;;;;;;2.13;1.92;;;;;;;15.77;56.37;98995.19;6148735;23;20194;-80
2023/03/23 08:43:29;;;;;;;4.95;2.25;;;;;;;15.75;56.41;99003.28;6122878;23;20495;-79
2023/03/23 08:46:18;;;;;;;6.47;2.30;;;;;;;15.72;56.82;98998.28;6121769;23;20230;-80
2023/03/23 08:49:12;;;;;;;2.30;2.10;;;;;;;15.69;56.84;99006.53;6017954;23;20171;-80
2023/03/23 08:51:56;;;;;;;2.38;2.17;;;;;;;15.68;56.93;99007.47;6148988;23;20174;-80
2023/03/23 08:54:47;;;;;;;2.83;2.47;;;;;;;15.70;56.70;99010.84;6092534;23;20167;-80
2023/03/23 08:57:31;;;;;;;3.67;2.50;;;;;;;15.70;56.87;99013.47;6147879;23;20250;-79
2023/03/23 09:00:27;;;;;;;3.15;2.10;;;;;;;15.74;56.95;99014.00;6134556;23;20194;-79
2023/03/23 09:03:06;;;;;;;3.53;2.03;;;;;;;15.76;57.00;99010.25;6123266;23;20503;-79
2023/03/23 09:05:45;;;;;;;3.80;2.72;;;;;;;15.78;57.27;99018.06;6122077;23;20155;-79
2023/03/23 09:08:22;;;;;;;2.88;2.58;;;;;;;15.76;57.42;99015.53;6154360;23;20229;-80
2023/03/23 09:10:49;;;;;;;2.37;2.17;;;;;;;15.80;57.36;99018.75;6155139;23;20187;-79
2023/03/23 09:13:14;;;;;;;4.13;2.65;;;;;;;15.82;57.48;99011.47;6154818;23;20149;-80
2023/03/23 09:15:40;;;;;;;3.13;2.80;;;;;;;15.83;57.33;99013.16;6155701;23;20183;-80
2023/03/23 09:18:06;;;;;;;6.23;2.40;;;;;;;15.83;57.22;99013.16;6157728;23;20179;-79
2023/03/23 09:20:31;;;;;;;4.53;3.27;;;;;;;15.85;57.25;99011.19;6155501;23;20486;-79
2023/03/23 09:22:57;;;;;;;5.20;4.53;;;;;;;15.90;57.15;99011.56;6155195;23;20299;-79
2023/03/23 09:25:26;;;;;;;5.68;4.60;;;;;;;15.93;57.06;99004.19;6152090;23;20166;-78
2023/03/23 09:27:56;;;;;;;6.25;4.47;;;;;;;15.98;56.90;99001.09;6150634;23;20632;-79
2023/03/23 09:30:23;;;;;;;2.97;2.78;;;;;;;16.06;56.69;99000.34;6149872;23;20433;-79
2023/03/23 09:32:49;;;;;;;3.45;2.70;;;;;;;16.14;56.37;98995.97;6151724;23;20182;-79
2023/03/23 09:35:16;;;;;;;2.83;2.20;;;;;;;16.23;56.15;98990.78;6148823;23;20478;-80
2023/03/23 09:37:43;;;;;;;8.75;4.20;;;;;;;16.31;55.71;98998.81;6150559;23;20736;-80
2023/03/23 09:40:19;;;;;;;5.72;3.95;;;;;;;16.41;55.73;98993.44;6152409;23;20188;-80
2023/03/23 09:43:10;;;;;;;4.88;3.63;;;;;;;16.50;55.66;98993.41;6151196;23;20174;-79
2023/03/23 09:46:07;;;;;;;10.75;3.75;;;;;;;16.58;55.57;99001.44;6152121;23;20153;-80
2023/03/23 09:48:59;;;;;;;27.73;6.07;;;;;;;16.66;55.39;99007.78;6150304;23;20632;-79
2023/03/23 09:51:32;;;;;;;2.20;2.00;;;;;;;16.71;54.55;99006.34;6149607;23;20247;-79
2023/03/23 09:54:09;;;;;;;2.47;1.63;;;;;;;16.78;53.97;99006.63;6149836;23;20164;-79
2023/03/23 09:56:36;;;;;;;4.25;1.98;;;;;;;16.84;53.07;99006.00;6149801;23;20603;-79
2023/03/23 09:59:10;;;;;;;9.77;2.83;;;;;;;16.88;52.68;99004.72;6149413;23;20184;-80
2023/03/23 10:01:41;;;;;;;1.85;1.70;;;;;;;16.93;52.45;98996.28;6150021;23;20176;-80
2023/03/23 10:04:30;;;;;;;1.80;1.70;;;;;;;16.95;51.83;98997.81;6123023;23;20168;-80
2023/03/23 10:07:06;;;;;;;1.65;1.55;;;;;;;16.98;51.65;99000.13;6122970;23;20190;-79
2023/03/23 10:09:31;;;;;;;2.80;1.98;;;;;;;17.00;51.28;99005.31;6150663;23;20245;-79
2023/03/23 10:12:09;;;;;;;1.63;1.50;;;;;;;17.02;50.92;99012.13;6149831;23;20238;-79
2023/03/23 10:15:00;;;;;;;2.55;1.77;;;;;;;17.03;50.01;99013.78;6149604;23;20164;-80
2023/03/23 10:17:26;;;;;;;2.40;1.98;;;;;;;17.07;49.71;98998.41;6149815;23;20193;-79
2023/03/23 10:20:24;;;;;;;2.70;1.90;;;;;;;17.15;49.37;98993.16;6150069;23;20165;-79
2023/03/23 10:23:01;;;;;;;4.20;1.63;;;;;;;17.26;49.06;99005.34;6149545;23;20182;-79
2023/03/23 10:25:34;;;;;;;3.00;1.80;;;;;;;17.36;48.42;98997.28;6148566;23;20170;-79
2023/03/23 10:28:21;;;;;;;2.20;2.00;;;;;;;17.46;48.59;99003.31;6148272;23;20183;-79
2023/03/23 10:30:56;;;;;;;2.25;1.70;;;;;;;17.55;47.61;98998.88;6149684;23;20626;-79
2023/03/23 10:33:42;;;;;;;2.35;1.52;;;;;;;17.63;47.31;99004.22;6149692;23;20616;-79
2023/03/23 10:36:29;;;;;;;2.40;2.20;;;;;;;17.72;47.15;98998.00;6148509;23;20397;-79
2023/03/23 10:39:04;;;;;;;2.57;1.60;;;;;;;17.78;46.31;98993.88;6149544;23;20166;-79
2023/03/23 10:41:30;;;;;;;2.67;1.90;;;;;;;17.84;46.44;98988.78;6149759;23;20398;-80
2023/03/23 10:43:56;;;;;;;3.20;1.80;;;;;;;17.88;46.29;98984.81;6148498;23;20437;-80
2023/03/23 10:46:39;;;;;;;3.07;1.90;;;;;;;17.95;45.98;98989.50;6149193;23;20517;-80
2023/03/23 10:49:12;;;;;;;2.10;1.90;;;;;;;18.00;45.88;98984.53;6122170;23;20507;-77
2023/03/23 10:51:45;;;;;;;4.30;2.30;;;;;;;18.06;45.71;98991.84;6124629;23;20458;-78
2023/03/23 10:54:10;;;;;;;3.37;3.00;;;;;;;18.10;45.34;98994.03;6145363;23;20842;-78
2023/03/23 10:56:39;;;;;;;2.70;1.60;;;;;;;18.15;45.10;98993.56;6145400;23;20453;-78
2023/03/23 10:59:34;;;;;;;4.30;2.40;;;;;;;18.23;45.21;98998.06;6145564;23;20179;-78
2023/03/23 11:02:03;;;;;;;4.97;1.90;;;;;;;18.25;45.12;98994.22;6119451;23;20905;-74
2023/03/23 11:04:30;;;;;;;2.00;1.60;;;;;;;18.28;44.86;98993.06;6144945;23;20405;-78
2023/03/23 11:07:01;;;;;;;4.93;2.63;;;;;;;18.33;44.90;98996.09;6119208;23;20425;-78
2023/03/23 11:09:36;;;;;;;13.20;3.90;;;;;;;18.40;44.99;98999.78;6145098;23;20469;-78
2023/03/23 11:12:02;;;;;;;6.13;4.60;;;;;;;18.44;44.50;98994.94;6145452;23;20374;-78
2023/03/23 11:14:30;;;;;;;4.23;3.83;;;;;;;18.47;44.73;98994.63;6144906;23;20458;-78
2023/03/23 11:16:57;;;;;;;15.00;5.97;;;;;;;18.52;44.71;98994.97;6145241;23;20622;-78
2023/03/23 11:19:32;;;;;;;5.23;4.10;;;;;;;18.57;44.70;98984.66;6145097;23;20375;-78
2023/03/23 11:22:06;;;;;;;4.53;3.20;;;;;;;18.64;44.40;98991.00;6145179;23;20463;-78
2023/03/23 11:24:34;;;;;;;9.03;4.50;;;;;;;18.68;44.57;98989.66;6144919;23;20458;-78
2023/03/23 11:27:00;;;;;;;2.47;1.90;;;;;;;18.69;44.16;98990.53;6145088;23;20898;-78
2023/03/23 11:29:30;;;;;;;4.60;2.87;;;;;;;18.69;44.12;98991.34;6118851;23;20394;-78
2023/03/23 11:31:59;;;;;;;2.73;2.10;;;;;;;18.75;43.96;98993.38;6145385;23;20889;-78
2023/03/23 11:34:35;;;;;;;2.67;1.93;;;;;;;18.85;43.91;98993.22;6145622;23;20403;-78
2023/03/23 11:37:09;;;;;;;2.30;1.90;;;;;;;18.94;43.83;98980.75;6144441;23;20959;-78
2023/03/23 11:39:48;;;;;;;3.27;1.90;;;;;;;19.04;43.61;98977.91;6144749;23;20718;-78
2023/03/23 11:42:28;;;;;;;2.10;1.53;;;;;;;19.09;43.03;98981.75;6144689;23;20732;-78
2023/03/23 11:44:54;;;;;;;4.03;2.03;;;;;;;19.17;43.17;98976.41;6145730;23;20437;-78
2023/03/23 11:47:41;;;;;;;2.40;2.20;;;;;;;19.22;43.09;98974.06;6144547;23;20417;-78
2023/03/23 11:50:19;;;;;;;2.90;1.80;;;;;;;19.31;43.16;98977.56;6145043;23;20395;-78
2023/03/23 11:53:13;;;;;;;1.63;1.53;;;;;;;19.41;42.75;98977.34;6145794;23;20470;-78
2023/03/23 11:55:45;;;;;;;2.90;1.90;;;;;;;19.44;42.60;98972.53;6146431;23;20379;-77
2023/03/23 11:58:16;;;;;;;2.37;1.97;;;;;;;19.47;42.68;98976.69;6147091;23;20507;-78
2023/03/23 12:01:21;;;;;;;2.33;1.57;;;;;;;19.49;42.41;98974.69;6147529;23;20545;-78
2023/03/23 12:04:05;;;;;;;2.63;1.73;;;;;;;19.49;41.97;98965.84;6116129;23;20434;-78
2023/03/23 12:06:53;;;;;;;1.80;1.40;;;;;;;19.48;41.98;98974.88;6145369;23;20690;-78